Terminal Aerodrome Forecast
Issued by NWS

Home | Current Version | Previous Version | Graphics & Text | Print | Product List | Glossary On
Versions: 1 2 3 4 5 6 7 8 9 10 11 12 13 14 15
000
FTUS43 KBIS 280530
TAFMOT
TAF
KMOT 280530Z 2806/2906 15007KT P6SM FEW250
     FM281200 18008KT P6SM FEW250
     FM282100 21012KT P6SM SCT250
     FM290000 26013KT P6SM SCT100 BKN250
     FM290400 29010KT P6SM SCT080 SCT100 BKN250=

USA.gov is the U.S. government's official web portal to all federal, state and local government web resources and services.